Terminal Aerodrome Forecast
Issued by NWS Shreveport, LA

Home | Current Version | Previous Version | Text Only | Print | Product List | Glossary On
Versions: 1 2 3 4 5 6 7 8 9 10 11 12 13 14 15 16 17
000
FTUS44 KSHV 300520
TAFLFK
TAF
KLFK 300520Z 3006/3106 VRB03KT P6SM SKC
      TEMPO 3006/3008 1/2SM FG VV002
     FM301400 27008KT P6SM SKC
     FM310000 VRB04KT P6SM SKC=

USA.gov is the U.S. government's official web portal to all federal, state and local government web resources and services.